Airfield :
LOGIN :

Register | Disclaimer

   EN    FR    IT 

 










Legend :    VFR   Marginal VFR   IFR   Intensive IFR   Very Intensive IFR
Visi :
Ceiling :
>= 8 km
>= 3000ft
5 to 8 km
1000 to 3000 ft
1500m to 5 km
500 to 1000 ft
800 to 1500m
200 to 500 ft
< 800m
< 200 ft
Symbols :   Thunderstorms  Fog  Heavy snow  Heavy precipitations  Wind > 20 kt
SIGMETs :     Misc.  Thunderstorms  Icing  Turbulence  Mountain Waves  Volcanic Ashes






- Airport Elevation : 203 ft
- IATA code : XMJ


LFBM - Mont-De-Marsan

CURRENT METAR :
  • 021300Z AUTO VRB02KT 9999 OVC013 08/05 Q1016 NOSIG

EXPIRED METARs :
  • 021230Z AUTO VRB03KT 9999 BKN010 OVC052 07/05 Q1016 NOSIG
  • 021200Z AUTO VRB02KT 9999 OVC009 07/05 Q1017 BECMG BKN010 BKN050
  • 021130Z AUTO VRB02KT 9999 BKN006 OVC052 06/05 Q1017 BECMG BKN010 BKN050
  • 021100Z AUTO 00000KT 9999 OVC005 06/05 Q1018 BECMG BKN010 BKN050
  • 021030Z AUTO VRB02KT 9999 BKN005 OVC052 05/05 Q1018 BECMG BKN010 BKN050

TAF TAF LFBM
Valid from the 02 at 09:00 until the 03 at 09:00 UTC


020800Z 0209/0309 VRB02KT 6000 NSW BKN010 BKN050
BECMG 0216/0218 BKN030
PROB30
TEMPO 0300/0309 2600 BR



MET'MAP, your aeronautical weather chart ! - Copyright ORBIFLY December 2007 - Disclaimer

ORBIFLY MET'MAP TEAM :

Programming & Development : Alexandra Zaïnal
Original concept : Baudouin d'Aumeries
Technical & hardware support : Manuel Goepfert
Assistance : Marc-Olivier Méhu




SOURCES & CREDITS :

   NOAA